createdAt,value
2019-04-14T00:00:42.548Z,17.12
2019-04-14T00:03:22.026Z,15.00
2019-04-14T00:05:52.124Z,15.68
2019-04-14T00:08:21.974Z,15.32
2019-04-14T00:10:51.492Z,14.10
2019-04-14T00:13:21.683Z,16.27
2019-04-14T00:15:52.055Z,14.95
2019-04-14T00:18:21.192Z,13.93
2019-04-14T00:20:49.705Z,14.63
2019-04-14T00:23:19.485Z,13.48
2019-04-14T00:25:48.503Z,12.25
2019-04-14T00:28:17.126Z,16.20
2019-04-14T00:30:45.578Z,14.23
2019-04-14T00:33:21.916Z,13.90
2019-04-14T00:36:06.922Z,13.80
2019-04-14T00:38:37.072Z,15.15
2019-04-14T00:41:09.973Z,13.55
2019-04-14T00:43:43.930Z,15.65
2019-04-14T00:46:16.914Z,13.98
2019-04-14T00:48:47.402Z,13.95
2019-04-14T00:51:15.982Z,13.53
2019-04-14T00:53:44.857Z,14.28
2019-04-14T00:56:13.658Z,16.82
2019-04-14T00:58:43.219Z,15.23
2019-04-14T01:01:13.234Z,15.58
2019-04-14T01:03:42.160Z,15.20
2019-04-14T01:06:12.135Z,16.05
2019-04-14T01:08:40.784Z,14.40
2019-04-14T01:11:09.575Z,15.80
2019-04-14T01:13:38.211Z,14.07
2019-04-14T01:16:13.239Z,15.70
2019-04-14T01:18:37.030Z,14.25
2019-04-14T01:21:06.707Z,15.18
2019-04-14T01:23:35.259Z,15.53
2019-04-14T01:26:04.933Z,14.20
2019-04-14T01:28:33.733Z,14.78
2019-04-14T01:31:03.356Z,15.00
2019-04-14T01:33:31.913Z,16.20
2019-04-14T01:36:01.696Z,15.72
2019-04-14T01:38:31.829Z,14.45
2019-04-14T01:41:02.017Z,15.28
2019-04-14T01:43:32.018Z,15.05
2019-04-14T01:46:10.539Z,12.90
2019-04-14T01:48:32.377Z,16.48
2019-04-14T01:51:18.701Z,16.07
2019-04-14T01:54:06.651Z,14.98
2019-04-14T01:56:51.786Z,18.27
2019-04-14T01:59:21.759Z,17.02
2019-04-14T02:01:52.461Z,15.48
2019-04-14T02:04:20.931Z,16.32
2019-04-14T02:06:50.499Z,15.70
2019-04-14T02:09:20.723Z,14.87
2019-04-14T02:11:49.362Z,15.55
2019-04-14T02:14:18.969Z,13.13
2019-04-14T02:16:53.644Z,15.18
2019-04-14T02:19:17.843Z,16.25
2019-04-14T02:21:47.676Z,14.03
2019-04-14T02:24:17.744Z,13.55
2019-04-14T02:26:46.367Z,14.07
2019-04-14T02:29:14.930Z,15.03
2019-04-14T02:32:11.439Z,17.42
2019-04-14T02:34:43.801Z,17.35
2019-04-14T02:37:12.302Z,14.03
2019-04-14T02:39:47.822Z,15.25
2019-04-14T02:42:22.422Z,16.05
2019-04-14T02:47:36.345Z,16.15
2019-04-14T02:49:44.121Z,16.02
2019-04-14T02:52:14.337Z,14.13
2019-04-14T02:57:16.787Z,14.43
2019-04-14T02:59:45.229Z,15.28
2019-04-14T03:02:24.720Z,17.90
2019-04-14T03:04:44.085Z,17.90
2019-04-14T03:07:14.385Z,18.40
2019-04-14T03:09:45.457Z,16.87
2019-04-14T03:12:16.347Z,15.03
2019-04-14T03:14:49.323Z,16.00
2019-04-14T03:20:13.688Z,18.62
2019-04-14T03:25:09.387Z,17.17
2019-04-14T03:27:54.455Z,15.53
2019-04-14T03:30:58.732Z,18.82
2019-04-14T03:33:36.118Z,15.72
2019-04-14T03:38:13.185Z,15.25
2019-04-14T03:40:34.021Z,15.60
2019-04-14T03:45:42.823Z,15.70
2019-04-14T03:48:33.792Z,15.93
2019-04-14T03:50:37.885Z,14.43
2019-04-14T03:53:16.344Z,15.53
2019-04-14T03:55:25.094Z,14.13
2019-04-14T03:57:41.674Z,18.20
2019-04-14T04:00:11.641Z,14.13
2019-04-14T04:02:40.269Z,18.32
2019-04-14T04:05:08.749Z,18.45
2019-04-14T04:07:37.307Z,14.28
2019-04-14T04:10:07.879Z,18.23
2019-04-14T04:12:36.395Z,14.58
2019-04-14T04:15:06.210Z,18.02
2019-04-14T04:17:40.796Z,15.93
2019-04-14T04:20:11.125Z,15.40
2019-04-14T04:22:47.658Z,21.85
2019-04-14T04:25:24.724Z,18.37
2019-04-14T04:28:03.964Z,17.42
2019-04-14T04:30:38.270Z,18.12
2019-04-14T04:33:26.435Z,21.73
2019-04-14T04:36:05.554Z,15.60
2019-04-14T04:38:42.036Z,20.40
2019-04-14T04:41:10.894Z,17.23
2019-04-14T04:43:39.341Z,17.15
2019-04-14T04:46:09.042Z,15.50
2019-04-14T04:48:37.971Z,16.80
2019-04-14T04:51:07.912Z,15.43
2019-04-14T04:53:37.871Z,17.73
2019-04-14T04:56:07.896Z,17.00
2019-04-14T04:58:37.150Z,15.32
2019-04-14T05:01:05.769Z,14.60
2019-04-14T05:03:34.285Z,16.45
2019-04-14T05:06:11.288Z,17.37
2019-04-14T05:08:41.854Z,17.17
2019-04-14T05:11:25.111Z,19.02
2019-04-14T05:13:55.363Z,17.98
2019-04-14T05:16:23.929Z,15.68
2019-04-14T05:18:53.025Z,15.18
2019-04-14T05:21:21.932Z,19.02
2019-04-14T05:23:51.659Z,14.80
2019-04-14T05:26:20.560Z,15.08
2019-04-14T05:28:50.555Z,16.90
2019-04-14T05:31:19.182Z,12.95
2019-04-14T05:33:48.934Z,16.52
2019-04-14T05:36:17.808Z,12.65
2019-04-14T05:38:47.311Z,14.85
2019-04-14T05:41:16.248Z,13.85
2019-04-14T05:43:51.642Z,16.87
2019-04-14T05:46:16.270Z,14.98
2019-04-14T05:48:45.209Z,14.53
2019-04-14T05:51:13.987Z,15.20
2019-04-14T05:53:43.671Z,16.07
2019-04-14T05:56:12.332Z,15.08
2019-04-14T05:58:40.798Z,14.65
2019-04-14T06:01:11.241Z,14.50
2019-04-14T06:03:40.789Z,14.35
2019-04-14T06:06:09.677Z,14.10
2019-04-14T06:08:38.538Z,13.95
2019-04-14T06:11:06.975Z,14.28
2019-04-14T06:13:35.546Z,13.62
2019-04-14T06:16:04.070Z,14.87
2019-04-14T06:18:32.872Z,13.28
2019-04-14T06:21:01.329Z,12.23
2019-04-14T06:23:29.791Z,10.93
2019-04-14T06:25:58.568Z,13.90
2019-04-14T06:28:27.086Z,14.15
2019-04-14T06:30:57.206Z,14.40
2019-04-14T06:33:30.035Z,12.05
2019-04-14T06:36:03.331Z,12.50
2019-04-14T06:38:35.873Z,11.97
2019-04-14T06:41:06.053Z,14.55
2019-04-14T06:43:34.843Z,15.38
2019-04-14T06:46:03.738Z,15.98
2019-04-14T06:48:32.903Z,13.20
2019-04-14T06:51:01.847Z,14.70
2019-04-14T06:53:30.661Z,13.35
2019-04-14T06:55:59.983Z,11.70
2019-04-14T06:58:28.833Z,13.95
2019-04-14T07:00:57.635Z,15.50
2019-04-14T07:03:26.421Z,21.90
2019-04-14T07:05:55.243Z,13.90
2019-04-14T07:08:24.015Z,13.55
2019-04-14T07:10:52.487Z,12.23
2019-04-14T07:13:21.988Z,13.10
2019-04-14T07:15:50.489Z,12.95
2019-04-14T07:18:19.415Z,15.10
2019-04-14T07:20:48.337Z,12.13
2019-04-14T07:23:17.138Z,14.05
2019-04-14T07:25:45.604Z,12.35
2019-04-14T07:28:14.376Z,10.78
2019-04-14T07:31:00.623Z,13.22
2019-04-14T07:33:47.070Z,12.98
2019-04-14T07:36:29.012Z,14.18
2019-04-14T07:39:11.046Z,12.15
2019-04-14T07:41:41.560Z,12.88
2019-04-14T07:44:15.070Z,14.20
2019-04-14T07:47:01.679Z,14.85
2019-04-14T07:49:50.626Z,12.93
2019-04-14T07:52:39.082Z,18.62
2019-04-14T07:55:15.562Z,15.05
2019-04-14T07:58:02.486Z,14.93
2019-04-14T08:00:33.020Z,13.40
2019-04-14T08:03:11.030Z,13.95
2019-04-14T08:05:41.604Z,14.68
2019-04-14T08:08:10.379Z,13.15
2019-04-14T08:10:39.255Z,18.50
2019-04-14T08:13:07.813Z,13.13
2019-04-14T08:15:36.688Z,12.98
2019-04-14T08:18:05.529Z,13.50
2019-04-14T08:20:35.310Z,11.68
2019-04-14T08:23:03.825Z,13.48
2019-04-14T08:25:32.621Z,13.83
2019-04-14T08:28:01.586Z,12.45
2019-04-14T08:30:30.764Z,15.00
2019-04-14T08:32:59.621Z,16.52
2019-04-14T08:35:28.078Z,13.58
2019-04-14T08:37:56.357Z,15.23
2019-04-14T08:40:25.208Z,13.88
2019-04-14T08:42:58.587Z,15.68
2019-04-14T08:45:32.098Z,13.93
2019-04-14T08:48:17.141Z,13.48
2019-04-14T08:50:47.636Z,14.90
2019-04-14T08:53:26.895Z,13.05
2019-04-14T08:56:13.674Z,13.88
2019-04-14T08:58:58.851Z,12.35
2019-04-14T09:01:38.087Z,12.07
2019-04-14T09:04:20.387Z,12.73
2019-04-14T09:06:53.390Z,13.03
2019-04-14T09:09:29.877Z,13.98
2019-04-14T09:12:00.339Z,12.95
2019-04-14T09:14:29.143Z,13.90
2019-04-14T09:16:58.097Z,11.83
2019-04-14T09:19:26.910Z,11.97
2019-04-14T09:21:55.765Z,12.50
2019-04-14T09:24:24.647Z,14.83
2019-04-14T09:26:53.521Z,12.50
2019-04-14T09:29:22.393Z,12.33
2019-04-14T09:31:51.189Z,13.90
2019-04-14T09:34:20.073Z,12.50
2019-04-14T09:36:48.865Z,14.53
2019-04-14T09:39:17.903Z,12.70
2019-04-14T09:41:46.785Z,11.15
2019-04-14T09:44:16.400Z,11.78
2019-04-14T09:46:45.260Z,13.75
2019-04-14T09:49:13.787Z,12.60
2019-04-14T09:51:42.353Z,12.87
2019-04-14T09:54:10.964Z,13.27
2019-04-14T09:56:39.515Z,11.43
2019-04-14T09:59:08.042Z,13.07
2019-04-14T10:01:36.724Z,13.50
2019-04-14T10:04:05.371Z,14.97
2019-04-14T10:06:33.550Z,11.83
2019-04-14T10:09:02.143Z,12.67
2019-04-14T10:11:30.395Z,13.77
2019-04-14T10:13:58.992Z,12.17
2019-04-14T10:16:27.478Z,12.40
2019-04-14T10:18:55.748Z,12.27
2019-04-14T10:21:24.502Z,13.07
2019-04-14T10:23:52.706Z,13.33
2019-04-14T10:26:20.952Z,13.83
2019-04-14T10:28:50.763Z,13.40
2019-04-14T10:31:19.080Z,13.60
2019-04-14T10:33:47.466Z,12.50
2019-04-14T10:36:15.662Z,13.03
2019-04-14T10:38:43.936Z,13.97
2019-04-14T10:41:12.505Z,13.70
2019-04-14T10:43:40.767Z,12.27
2019-04-14T10:46:09.317Z,12.33
2019-04-14T10:48:37.511Z,12.07
2019-04-14T10:51:05.998Z,12.40
2019-04-14T10:53:34.220Z,14.27
2019-04-14T10:56:02.746Z,14.93
2019-04-14T10:58:30.916Z,13.23
2019-04-14T11:00:59.180Z,12.00
2019-04-14T11:03:27.421Z,12.67
2019-04-14T11:06:00.373Z,13.10
2019-04-14T11:08:28.694Z,13.07
2019-04-14T11:10:57.277Z,13.13
2019-04-14T11:13:25.446Z,15.33
2019-04-14T11:15:53.972Z,13.77
2019-04-14T11:18:22.126Z,12.90
2019-04-14T11:20:50.694Z,11.53
2019-04-14T11:23:18.934Z,14.20
2019-04-14T11:25:47.293Z,12.90
2019-04-14T11:28:15.857Z,12.17
2019-04-14T11:30:44.458Z,13.53
2019-04-14T11:33:17.126Z,13.13
2019-04-14T11:35:53.785Z,12.60
2019-04-14T11:38:24.038Z,12.70
2019-04-14T11:40:53.959Z,11.33
2019-04-14T11:43:22.563Z,13.73
2019-04-14T11:45:51.153Z,10.80
2019-04-14T11:48:19.380Z,12.67
2019-04-14T11:50:47.565Z,12.87
2019-04-14T11:53:15.736Z,13.60
2019-04-14T11:55:44.003Z,13.90
2019-04-14T11:58:12.635Z,12.77
2019-04-14T12:00:45.647Z,12.90
2019-04-14T12:03:18.551Z,13.23
2019-04-14T12:05:48.375Z,13.73
2019-04-14T12:08:18.177Z,13.00
2019-04-14T12:10:46.438Z,13.37
2019-04-14T12:13:14.607Z,13.43
2019-04-14T12:15:42.801Z,13.40
2019-04-14T12:18:11.032Z,13.23
2019-04-14T12:20:39.269Z,11.87
2019-04-14T12:23:07.852Z,13.83
2019-04-14T12:25:36.388Z,13.03
2019-04-14T12:28:04.835Z,12.67
2019-04-14T12:30:33.418Z,14.37
2019-04-14T12:33:01.936Z,14.67
2019-04-14T12:35:30.099Z,12.07
2019-04-14T12:37:58.622Z,13.60
2019-04-14T12:40:27.318Z,13.70
2019-04-14T12:43:02.918Z,13.60
2019-04-14T12:45:32.737Z,12.80
2019-04-14T12:48:08.102Z,15.47
2019-04-14T12:50:43.657Z,14.57
2019-04-14T12:53:11.925Z,15.83
2019-04-14T12:55:40.294Z,12.93
2019-04-14T12:58:11.337Z,13.63
2019-04-14T13:00:41.250Z,15.27
2019-04-14T13:03:09.501Z,12.20
2019-04-14T13:05:38.008Z,14.43
2019-04-14T13:08:06.284Z,11.90
2019-04-14T13:10:34.785Z,13.20
2019-04-14T13:13:03.372Z,12.27
2019-04-14T13:15:31.644Z,13.20
2019-04-14T13:18:00.150Z,11.63
2019-04-14T13:20:28.334Z,12.30
2019-04-14T13:22:56.814Z,11.13
2019-04-14T13:25:25.018Z,13.40
2019-04-14T13:27:53.184Z,15.13
2019-04-14T13:30:28.918Z,11.57
2019-04-14T13:32:57.150Z,12.20
2019-04-14T13:35:25.836Z,10.87
2019-04-14T13:37:54.464Z,10.60
2019-04-14T13:40:22.718Z,11.73
2019-04-14T13:42:51.215Z,12.77
2019-04-14T13:45:19.744Z,11.87
2019-04-14T13:47:48.227Z,13.10
2019-04-14T13:50:16.914Z,12.70
2019-04-14T13:52:47.067Z,10.87
2019-04-14T13:55:15.902Z,12.87
2019-04-14T13:57:44.527Z,11.80
2019-04-14T14:00:14.361Z,12.70
2019-04-14T14:02:43.400Z,11.47
2019-04-14T14:05:12.549Z,11.93
2019-04-14T14:07:41.110Z,11.33
2019-04-14T14:10:09.464Z,11.53
2019-04-14T14:12:39.272Z,11.03
2019-04-14T14:15:12.567Z,11.00
2019-04-14T14:17:59.321Z,11.10
2019-04-14T14:20:32.330Z,10.90
2019-04-14T14:23:11.369Z,10.40
2019-04-14T14:25:53.689Z,13.67
2019-04-14T14:28:22.261Z,10.73
2019-04-14T14:30:50.991Z,11.17
2019-04-14T14:33:19.561Z,10.37
2019-04-14T14:35:48.151Z,11.20
2019-04-14T14:38:17.795Z,10.47
2019-04-14T14:40:49.033Z,10.73
2019-04-14T14:43:16.665Z,11.60
2019-04-14T14:45:46.893Z,10.80
2019-04-14T14:48:22.729Z,11.53
2019-04-14T14:50:52.609Z,11.30
2019-04-14T14:53:22.350Z,11.57
2019-04-14T14:55:51.207Z,12.33
2019-04-14T14:58:20.017Z,12.50
2019-04-14T15:00:49.214Z,11.55
2019-04-14T15:03:17.853Z,12.17
2019-04-14T15:05:46.472Z,10.67
2019-04-14T15:08:15.091Z,11.73
2019-04-14T15:10:43.615Z,11.57
2019-04-14T15:13:12.116Z,11.20
2019-04-14T15:15:40.398Z,10.60
2019-04-14T15:18:08.886Z,12.07
2019-04-14T15:20:38.466Z,10.60
2019-04-14T15:23:06.942Z,10.60
2019-04-14T15:25:35.469Z,11.00
2019-04-14T15:28:04.049Z,11.87
2019-04-14T15:30:32.611Z,10.80
2019-04-14T15:33:01.296Z,11.03
2019-04-14T15:35:29.947Z,10.20
2019-04-14T15:37:58.431Z,10.17
2019-04-14T15:40:26.940Z,11.40
2019-04-14T15:42:55.561Z,9.33
2019-04-14T15:45:24.190Z,11.33
2019-04-14T15:47:52.800Z,10.10
2019-04-14T15:50:21.363Z,8.93
2019-04-14T15:52:49.970Z,9.80
2019-04-14T15:55:19.034Z,7.90
2019-04-14T15:57:55.058Z,9.30
2019-04-14T16:00:37.000Z,7.87
2019-04-14T16:03:18.975Z,8.77
2019-04-14T16:06:04.099Z,9.13
2019-04-14T16:08:43.235Z,9.50
2019-04-14T16:11:22.438Z,10.80
2019-04-14T16:13:52.581Z,8.00
2019-04-14T16:16:40.720Z,9.00
2019-04-14T16:19:17.100Z,9.33
2019-04-14T16:21:45.640Z,8.10
2019-04-14T16:24:14.154Z,9.27
2019-04-14T16:26:47.021Z,8.08
2019-04-14T16:29:17.530Z,8.05
2019-04-14T16:31:53.553Z,8.95
2019-04-14T16:34:24.091Z,8.73
2019-04-14T16:36:53.851Z,8.48
2019-04-14T16:39:22.723Z,9.68
2019-04-14T16:41:51.477Z,9.48
2019-04-14T16:44:20.277Z,8.25
2019-04-14T16:46:49.049Z,8.73
2019-04-14T16:49:17.839Z,8.85
2019-04-14T16:51:48.321Z,8.70
2019-04-14T16:54:18.831Z,8.65
2019-04-14T16:57:05.443Z,9.13
2019-04-14T16:59:34.228Z,8.78
2019-04-14T17:02:10.883Z,9.33
2019-04-14T17:04:33.233Z,8.10
2019-04-14T17:07:02.004Z,8.90
2019-04-14T17:09:30.455Z,9.13
2019-04-14T17:11:59.493Z,8.45
2019-04-14T17:14:36.275Z,9.00
2019-04-14T17:17:09.689Z,8.78
2019-04-14T17:19:46.026Z,9.03
2019-04-14T17:22:18.919Z,9.20
2019-04-14T17:25:05.389Z,8.25
2019-04-14T17:27:46.912Z,9.40
2019-04-14T17:30:25.669Z,9.65
2019-04-14T17:33:04.683Z,8.45
2019-04-14T17:35:34.859Z,9.58
2019-04-14T17:38:17.490Z,10.13
2019-04-14T17:40:50.753Z,9.70
2019-04-14T17:43:21.221Z,9.75
2019-04-14T17:45:57.666Z,9.50
2019-04-14T17:48:44.236Z,9.20
2019-04-14T17:51:20.819Z,9.33
2019-04-14T17:53:51.304Z,10.23
2019-04-14T17:56:21.806Z,9.75
2019-04-14T17:59:00.648Z,8.25
2019-04-14T18:01:33.848Z,8.08
2019-04-14T18:04:04.589Z,10.03
2019-04-14T18:06:37.942Z,9.25
2019-04-14T18:09:08.258Z,8.68
2019-04-14T18:11:47.422Z,8.50
2019-04-14T18:14:17.856Z,7.70
2019-04-14T18:17:04.261Z,8.83
2019-04-14T18:19:37.260Z,8.28
2019-04-14T18:22:06.134Z,9.63
2019-04-14T18:24:42.305Z,8.05
2019-04-14T18:27:05.054Z,8.80
2019-04-14T18:29:35.467Z,8.75
2019-04-14T18:32:21.994Z,8.95
2019-04-14T18:34:54.906Z,9.73
2019-04-14T18:37:30.690Z,9.63
2019-04-14T18:40:03.658Z,9.68
2019-04-14T18:42:34.095Z,10.45
2019-04-14T18:45:18.943Z,9.60
2019-04-14T18:47:49.131Z,9.10
2019-04-14T18:50:35.549Z,10.23
2019-04-14T18:53:14.938Z,10.70
2019-04-14T18:55:53.982Z,12.50
2019-04-14T18:58:42.422Z,11.10
2019-04-14T19:01:18.614Z,11.10
2019-04-14T19:03:47.383Z,10.55
2019-04-14T19:06:15.935Z,12.13
2019-04-14T19:08:44.808Z,12.18
2019-04-14T19:11:15.307Z,11.93
2019-04-14T19:13:54.656Z,12.53
2019-04-14T19:16:25.074Z,13.32
2019-04-14T19:18:55.216Z,12.00
2019-04-14T19:21:25.723Z,12.20
2019-04-14T19:23:54.571Z,12.35
2019-04-14T19:26:23.549Z,12.53
2019-04-14T19:28:52.369Z,12.98
2019-04-14T19:31:20.891Z,13.65
2019-04-14T19:33:49.767Z,14.43
2019-04-14T19:36:18.463Z,13.45
2019-04-14T19:38:46.947Z,14.15
2019-04-14T19:41:15.869Z,13.40
2019-04-14T19:43:44.673Z,12.82
2019-04-14T19:46:13.590Z,14.90
2019-04-14T19:48:42.391Z,14.35
2019-04-14T19:51:10.874Z,13.35
2019-04-14T19:53:39.755Z,14.05
2019-04-14T19:56:08.609Z,13.93
2019-04-14T19:58:37.324Z,15.30
2019-04-14T20:01:07.149Z,13.28
2019-04-14T20:03:36.263Z,13.13
2019-04-14T20:06:05.746Z,14.23
2019-04-14T20:08:36.279Z,14.63
2019-04-14T20:11:04.933Z,12.00
2019-04-14T20:13:35.026Z,15.63
2019-04-14T20:16:21.804Z,13.58
2019-04-14T20:19:10.870Z,14.50
2019-04-14T20:21:57.772Z,14.98
2019-04-14T20:24:37.290Z,14.98
2019-04-14T20:27:07.763Z,15.13
2019-04-14T20:32:21.085Z,15.00
2019-04-14T20:34:49.979Z,13.83
2019-04-14T20:37:18.834Z,16.27
2019-04-14T20:39:47.769Z,16.12
2019-04-14T20:42:16.347Z,15.70
2019-04-14T20:44:45.312Z,16.48
2019-04-14T20:47:13.852Z,15.28
2019-04-14T20:49:42.726Z,14.38
2019-04-14T20:52:11.649Z,15.60
2019-04-14T20:54:40.107Z,15.50
2019-04-14T20:57:08.575Z,13.32
2019-04-14T20:59:37.388Z,15.08
2019-04-14T21:02:08.023Z,14.55
2019-04-14T21:04:38.192Z,14.75
2019-04-14T21:07:26.588Z,15.85
2019-04-14T21:09:57.070Z,19.15
2019-04-14T21:12:42.614Z,14.87
2019-04-14T21:15:19.242Z,14.93
2019-04-14T21:17:49.427Z,16.52
2019-04-14T21:20:36.267Z,15.35
2019-04-14T21:23:09.535Z,14.95
2019-04-14T21:25:42.993Z,16.35
2019-04-14T21:28:13.576Z,16.57
2019-04-14T21:30:46.457Z,16.05
2019-04-14T21:33:33.000Z,15.63
2019-04-14T21:36:15.539Z,14.65
2019-04-14T21:38:57.619Z,15.30
2019-04-14T21:41:30.790Z,16.40
2019-04-14T21:43:59.704Z,18.00
2019-04-14T21:46:28.521Z,16.15
2019-04-14T21:48:57.353Z,15.32
2019-04-14T21:51:27.862Z,18.12
2019-04-14T21:53:56.920Z,17.27
2019-04-14T21:56:27.397Z,16.97
2019-04-14T21:59:09.627Z,17.35
2019-04-14T22:01:56.370Z,17.92
2019-04-14T22:04:32.773Z,17.23
2019-04-14T22:07:05.973Z,17.45
2019-04-14T22:09:36.431Z,17.95
2019-04-14T22:12:06.509Z,17.32
2019-04-14T22:14:35.443Z,17.42
2019-04-14T22:17:04.670Z,16.17
2019-04-14T22:19:33.549Z,17.23
2019-04-14T22:22:02.477Z,16.67
2019-04-14T22:24:31.295Z,15.90
2019-04-14T22:27:00.069Z,17.92
2019-04-14T22:29:28.995Z,17.12
2019-04-14T22:31:57.831Z,18.80
2019-04-14T22:34:26.671Z,16.12
2019-04-14T22:36:55.573Z,17.77
2019-04-14T22:39:24.447Z,15.85
2019-04-14T22:41:53.222Z,18.60
2019-04-14T22:44:21.701Z,18.70
2019-04-14T22:46:50.479Z,16.37
2019-04-14T22:49:18.963Z,16.60
2019-04-14T22:51:47.826Z,16.85
2019-04-14T22:54:16.638Z,17.25
2019-04-14T22:56:45.422Z,19.20
2019-04-14T22:59:14.223Z,19.12
2019-04-14T23:01:44.727Z,17.10
2019-04-14T23:04:31.344Z,17.02
2019-04-14T23:07:13.613Z,17.77
2019-04-14T23:09:48.407Z,16.97
2019-04-14T23:12:27.786Z,17.85
2019-04-14T23:14:57.903Z,18.30
2019-04-14T23:17:31.035Z,19.27
2019-04-14T23:20:01.619Z,18.27
2019-04-14T23:22:37.767Z,16.97
2019-04-14T23:25:06.803Z,17.85
2019-04-14T23:27:35.646Z,17.85
2019-04-14T23:30:05.886Z,18.40
2019-04-14T23:32:34.669Z,17.40
2019-04-14T23:35:04.877Z,19.50
2019-04-14T23:37:33.656Z,18.62
2019-04-14T23:40:02.444Z,19.02
2019-04-14T23:42:31.218Z,20.12
2019-04-14T23:45:00.266Z,19.62
2019-04-14T23:47:28.710Z,16.93
2019-04-14T23:49:57.523Z,18.57
2019-04-14T23:52:26.288Z,19.30
2019-04-14T23:54:55.153Z,17.42
2019-04-14T23:57:24.575Z,17.92
2019-04-14T23:59:53.448Z,19.02
